createdAt,value
2023-05-14T00:01:05.464Z,21
2023-05-14T00:16:05.281Z,19
2023-05-14T00:31:05.651Z,19
2023-05-14T00:46:05.128Z,18
2023-05-14T01:01:04.932Z,20
2023-05-14T01:16:05.762Z,20
2023-05-14T01:31:04.789Z,17
2023-05-14T01:46:05.064Z,19
2023-05-14T02:01:05.208Z,17
2023-05-14T02:16:05.415Z,17
2023-05-14T02:31:05.671Z,21
2023-05-14T02:46:04.856Z,20
2023-05-14T03:01:04.978Z,23
2023-05-14T03:16:05.082Z,24
2023-05-14T03:31:05.421Z,24
2023-05-14T03:46:04.949Z,24
2023-05-14T04:01:05.596Z,24
2023-05-14T04:16:05.584Z,23
2023-05-14T04:31:04.915Z,22
2023-05-14T04:46:05.024Z,19
2023-05-14T05:01:05.631Z,18
2023-05-14T05:16:05.682Z,15
2023-05-14T05:31:05.228Z,14
2023-05-14T05:46:05.345Z,16
2023-05-14T06:01:05.269Z,15
2023-05-14T06:16:05.887Z,12
2023-05-14T06:31:05.108Z,10
2023-05-14T06:46:05.483Z,13
2023-05-14T07:16:05.985Z,8
2023-05-14T07:31:05.883Z,9
2023-05-14T07:46:05.105Z,4
2023-05-14T08:01:05.816Z,5
2023-05-14T08:16:05.605Z,5
2023-05-14T08:31:04.718Z,5
2023-05-14T08:46:05.924Z,6
2023-05-14T09:01:05.614Z,8
2023-05-14T09:16:04.794Z,7
2023-05-14T09:31:04.993Z,7
2023-05-14T09:46:05.404Z,7
2023-05-14T10:01:05.854Z,6
2023-05-14T10:16:04.722Z,6
2023-05-14T10:31:05.167Z,3
2023-05-14T10:46:05.221Z,5
2023-05-14T11:01:05.087Z,5
2023-05-14T11:16:23.110Z,7
2023-05-14T11:31:05.687Z,5
2023-05-14T11:46:05.446Z,3
2023-05-14T12:01:05.999Z,3
2023-05-14T12:16:05.264Z,4
2023-05-14T12:46:05.429Z,4
2023-05-14T13:01:05.306Z,4
2023-05-14T13:16:05.832Z,3
2023-05-14T13:31:05.595Z,2
2023-05-14T13:46:05.209Z,3
2023-05-14T14:01:05.677Z,2
2023-05-14T14:16:05.201Z,3
2023-05-14T14:31:05.380Z,3
2023-05-14T14:46:05.628Z,4
2023-05-14T15:01:05.617Z,2
2023-05-14T15:16:05.721Z,4
2023-05-14T15:31:05.350Z,4
2023-05-14T15:46:05.599Z,3
2023-05-14T16:01:06.007Z,3
2023-05-14T16:16:05.152Z,3
2023-05-14T16:31:04.637Z,3
2023-05-14T16:46:05.277Z,5
2023-05-14T17:01:09.625Z,4
2023-05-14T17:31:04.057Z,5
2023-05-14T17:46:05.359Z,3
2023-05-14T18:01:05.528Z,5
2023-05-14T18:16:05.003Z,3
2023-05-14T18:31:05.360Z,5
2023-05-14T18:46:05.646Z,5
2023-05-14T19:01:05.120Z,6
2023-05-14T19:16:05.549Z,6
2023-05-14T19:31:04.888Z,6
2023-05-14T19:46:06.570Z,8
2023-05-14T20:01:05.907Z,11
2023-05-14T20:16:05.476Z,11
2023-05-14T20:31:04.913Z,15
2023-05-14T20:46:05.036Z,26
2023-05-14T21:01:05.548Z,27
2023-05-14T21:16:05.808Z,22
2023-05-14T21:31:04.709Z,17
2023-05-14T21:46:04.992Z,21
2023-05-14T22:01:05.638Z,18
2023-05-14T22:16:13.893Z,17
2023-05-14T22:31:05.943Z,14
2023-05-14T22:46:05.467Z,9
2023-05-14T23:01:04.836Z,10
2023-05-14T23:16:05.203Z,7
2023-05-14T23:31:05.829Z,7
2023-05-14T23:46:05.175Z,6
